sensor_id;sensor_type;location;lat;lon;timestamp;pressure;altitude;pressure_sealevel;temperature;humidity
70302;BME280;57706;56.326;43.882;2023-01-25T00:00:52;102186.44;;;-5.01;79.52
70302;BME280;57706;56.326;43.882;2023-01-25T00:03:18;102188.84;;;-4.87;78.96
70302;BME280;57706;56.326;43.882;2023-01-25T00:05:44;102184.47;;;-4.80;78.51
70302;BME280;57706;56.326;43.882;2023-01-25T00:08:09;102184.31;;;-4.67;77.89
70302;BME280;57706;56.326;43.882;2023-01-25T00:10:35;102178.28;;;-4.63;78.45
70302;BME280;57706;56.326;43.882;2023-01-25T00:13:01;102174.09;;;-4.71;78.31
70302;BME280;57706;56.326;43.882;2023-01-25T00:15:27;102182.72;;;-4.78;78.08
70302;BME280;57706;56.326;43.882;2023-01-25T00:17:52;102186.97;;;-4.75;78.96
70302;BME280;57706;56.326;43.882;2023-01-25T00:20:18;102182.47;;;-4.56;78.03
70302;BME280;57706;56.326;43.882;2023-01-25T00:22:44;102174.13;;;-4.74;78.81
70302;BME280;57706;56.326;43.882;2023-01-25T00:25:09;102182.59;;;-4.65;78.51
70302;BME280;57706;56.326;43.882;2023-01-25T00:27:35;102168.06;;;-4.70;78.52
70302;BME280;57706;56.326;43.882;2023-01-25T00:30:01;102180.91;;;-4.70;79.00
70302;BME280;57706;56.326;43.882;2023-01-25T00:32:36;102178.19;;;-4.57;77.90
70302;BME280;57706;56.326;43.882;2023-01-25T00:35:09;102182.53;;;-4.62;78.20
70302;BME280;57706;56.326;43.882;2023-01-25T00:37:46;102183.16;;;-4.45;77.63
70302;BME280;57706;56.326;43.882;2023-01-25T00:40:14;102189.56;;;-4.77;78.74
70302;BME280;57706;56.326;43.882;2023-01-25T00:42:40;102184.97;;;-4.51;77.12
70302;BME280;57706;56.326;43.882;2023-01-25T00:45:08;102185.56;;;-4.32;77.25
70302;BME280;57706;56.326;43.882;2023-01-25T00:47:34;102184.19;;;-4.58;77.85
70302;BME280;57706;56.326;43.882;2023-01-25T00:50:04;102189.41;;;-4.64;78.09
70302;BME280;57706;56.326;43.882;2023-01-25T00:52:30;102188.47;;;-4.57;78.01
70302;BME280;57706;56.326;43.882;2023-01-25T00:54:58;102197.03;;;-4.60;78.43
70302;BME280;57706;56.326;43.882;2023-01-25T00:57:23;102174.09;;;-4.71;78.61
70302;BME280;57706;56.326;43.882;2023-01-25T00:59:49;102176.63;;;-4.69;78.70
70302;BME280;57706;56.326;43.882;2023-01-25T01:02:15;102174.88;;;-4.65;78.73
70302;BME280;57706;56.326;43.882;2023-01-25T01:04:41;102175.34;;;-4.35;78.54
70302;BME280;57706;56.326;43.882;2023-01-25T01:07:07;102171.03;;;-4.35;77.24
70302;BME280;57706;56.326;43.882;2023-01-25T01:09:50;102171.28;;;-4.52;78.06
70302;BME280;57706;56.326;43.882;2023-01-25T01:12:16;102164.69;;;-4.72;78.84
70302;BME280;57706;56.326;43.882;2023-01-25T01:14:41;102162.09;;;-4.68;79.59
70302;BME280;57706;56.326;43.882;2023-01-25T01:17:07;102168.63;;;-4.46;78.14
70302;BME280;57706;56.326;43.882;2023-01-25T01:19:33;102164.69;;;-4.70;79.28
70302;BME280;57706;56.326;43.882;2023-01-25T01:21:59;102162.94;;;-4.68;79.75
70302;BME280;57706;56.326;43.882;2023-01-25T01:24:27;102159.31;;;-4.53;78.81
70302;BME280;57706;56.326;43.882;2023-01-25T01:26:53;102164.22;;;-4.37;78.48
70302;BME280;57706;56.326;43.882;2023-01-25T01:29:19;102168.72;;;-4.52;78.48
70302;BME280;57706;56.326;43.882;2023-01-25T01:31:45;102162.75;;;-4.54;78.73
70302;BME280;57706;56.326;43.882;2023-01-25T01:34:18;102168.44;;;-4.32;77.78
70302;BME280;57706;56.326;43.882;2023-01-25T01:36:44;102166.03;;;-4.43;78.34
70302;BME280;57706;56.326;43.882;2023-01-25T01:39:10;102155.78;;;-4.46;78.88
70302;BME280;57706;56.326;43.882;2023-01-25T01:41:36;102158.56;;;-4.61;78.98
70302;BME280;57706;56.326;43.882;2023-01-25T01:44:04;102171.28;;;-4.52;79.34
70302;BME280;57706;56.326;43.882;2023-01-25T01:46:35;102177.41;;;-4.62;79.53
70302;BME280;57706;56.326;43.882;2023-01-25T01:49:19;102157.38;;;-4.35;79.17
70302;BME280;57706;56.326;43.882;2023-01-25T01:51:50;102155.47;;;-4.22;77.84
70302;BME280;57706;56.326;43.882;2023-01-25T01:57:39;102164.38;;;-4.47;79.29
70302;BME280;57706;56.326;43.882;2023-01-25T02:00:22;102168.88;;;-4.66;79.77
70302;BME280;57706;56.326;43.882;2023-01-25T02:02:41;102165.31;;;-4.52;80.23
70302;BME280;57706;56.326;43.882;2023-01-25T02:08:04;102177.94;;;-4.37;79.21
70302;BME280;57706;56.326;43.882;2023-01-25T02:10:31;102192.34;;;-4.28;78.82
70302;BME280;57706;56.326;43.882;2023-01-25T02:12:58;102172.00;;;-4.40;79.57
70302;BME280;57706;56.326;43.882;2023-01-25T02:15:32;102163.28;;;-4.30;78.55
70302;BME280;57706;56.326;43.882;2023-01-25T02:18:01;102150.50;;;-4.36;78.78
70302;BME280;57706;56.326;43.882;2023-01-25T02:23:29;102148.22;;;-4.55;79.96
70302;BME280;57706;56.326;43.882;2023-01-25T02:26:01;102158.00;;;-4.21;78.85
70302;BME280;57706;56.326;43.882;2023-01-25T02:28:45;102148.75;;;-4.33;79.53
70302;BME280;57706;56.326;43.882;2023-01-25T02:31:13;102159.00;;;-4.31;79.08
70302;BME280;57706;56.326;43.882;2023-01-25T02:33:38;102154.56;;;-4.20;79.15
70302;BME280;57706;56.326;43.882;2023-01-25T02:38:40;102162.00;;;-4.62;80.49
70302;BME280;57706;56.326;43.882;2023-01-25T02:44:05;102155.03;;;-4.54;80.89
70302;BME280;57706;56.326;43.882;2023-01-25T02:46:35;102149.50;;;-4.24;79.82
70302;BME280;57706;56.326;43.882;2023-01-25T02:49:03;102147.84;;;-4.27;79.57
70302;BME280;57706;56.326;43.882;2023-01-25T02:51:32;102151.38;;;-4.34;79.46
70302;BME280;57706;56.326;43.882;2023-01-25T02:53:58;102152.59;;;-4.02;78.57
70302;BME280;57706;56.326;43.882;2023-01-25T02:56:24;102157.75;;;-4.05;78.53
70302;BME280;57706;56.326;43.882;2023-01-25T02:58:51;102154.63;;;-4.23;78.68
70302;BME280;57706;56.326;43.882;2023-01-25T03:01:18;102156.38;;;-4.25;79.36
70302;BME280;57706;56.326;43.882;2023-01-25T03:03:44;102153.94;;;-4.34;79.87
70302;BME280;57706;56.326;43.882;2023-01-25T03:06:10;102132.59;;;-4.38;80.26
70302;BME280;57706;56.326;43.882;2023-01-25T03:08:36;102134.63;;;-4.04;78.92
70302;BME280;57706;56.326;43.882;2023-01-25T03:11:03;102139.94;;;-4.15;79.32
70302;BME280;57706;56.326;43.882;2023-01-25T03:13:31;102138.09;;;-4.08;79.43
70302;BME280;57706;56.326;43.882;2023-01-25T03:16:05;102135.59;;;-4.09;79.16
70302;BME280;57706;56.326;43.882;2023-01-25T03:18:33;102138.09;;;-4.06;78.91
70302;BME280;57706;56.326;43.882;2023-01-25T03:21:11;102147.72;;;-4.21;79.58
70302;BME280;57706;56.326;43.882;2023-01-25T03:23:38;102146.84;;;-4.18;79.66
70302;BME280;57706;56.326;43.882;2023-01-25T03:26:10;102147.94;;;-4.33;80.08
70302;BME280;57706;56.326;43.882;2023-01-25T03:28:43;102150.09;;;-4.07;79.26
70302;BME280;57706;56.326;43.882;2023-01-25T03:31:11;102145.94;;;-4.14;78.99
70302;BME280;57706;56.326;43.882;2023-01-25T03:33:37;102141.38;;;-3.98;79.14
70302;BME280;57706;56.326;43.882;2023-01-25T03:36:05;102136.13;;;-3.90;78.32
70302;BME280;57706;56.326;43.882;2023-01-25T03:38:32;102124.44;;;-4.10;78.90
70302;BME280;57706;56.326;43.882;2023-01-25T03:40:59;102140.13;;;-4.27;79.94
70302;BME280;57706;56.326;43.882;2023-01-25T03:43:26;102136.56;;;-4.18;80.10
70302;BME280;57706;56.326;43.882;2023-01-25T03:45:55;102137.19;;;-4.02;79.50
70302;BME280;57706;56.326;43.882;2023-01-25T03:48:23;102134.81;;;-4.16;79.85
70302;BME280;57706;56.326;43.882;2023-01-25T03:50:51;102137.22;;;-4.05;79.41
70302;BME280;57706;56.326;43.882;2023-01-25T03:53:27;102143.16;;;-4.03;79.19
70302;BME280;57706;56.326;43.882;2023-01-25T03:56:09;102147.63;;;-4.15;79.57
70302;BME280;57706;56.326;43.882;2023-01-25T03:58:37;102129.34;;;-3.94;78.74
70302;BME280;57706;56.326;43.882;2023-01-25T04:01:05;102119.94;;;-3.94;79.07
70302;BME280;57706;56.326;43.882;2023-01-25T04:03:32;102115.50;;;-3.85;78.50
70302;BME280;57706;56.326;43.882;2023-01-25T04:05:59;102128.06;;;-3.70;78.10
70302;BME280;57706;56.326;43.882;2023-01-25T04:08:43;102131.94;;;-3.96;78.83
70302;BME280;57706;56.326;43.882;2023-01-25T04:11:10;102147.25;;;-3.90;78.27
70302;BME280;57706;56.326;43.882;2023-01-25T04:13:37;102145.63;;;-3.94;78.86
70302;BME280;57706;56.326;43.882;2023-01-25T04:16:07;102145.47;;;-3.84;78.69
70302;BME280;57706;56.326;43.882;2023-01-25T04:18:54;102142.25;;;-3.99;79.24
70302;BME280;57706;56.326;43.882;2023-01-25T04:21:20;102142.09;;;-3.90;79.48
70302;BME280;57706;56.326;43.882;2023-01-25T04:23:46;102136.56;;;-3.66;78.24
70302;BME280;57706;56.326;43.882;2023-01-25T04:26:12;102145.22;;;-3.72;78.08
70302;BME280;57706;56.326;43.882;2023-01-25T04:28:41;102147.78;;;-3.70;77.74
70302;BME280;57706;56.326;43.882;2023-01-25T04:31:07;102154.03;;;-3.85;78.52
70302;BME280;57706;56.326;43.882;2023-01-25T04:33:38;102149.00;;;-3.90;79.08
70302;BME280;57706;56.326;43.882;2023-01-25T04:36:04;102135.22;;;-3.88;79.21
70302;BME280;57706;56.326;43.882;2023-01-25T04:38:30;102147.19;;;-3.87;78.94
70302;BME280;57706;56.326;43.882;2023-01-25T04:40:56;102158.25;;;-3.83;78.50
70302;BME280;57706;56.326;43.882;2023-01-25T04:43:22;102151.50;;;-3.87;78.70
70302;BME280;57706;56.326;43.882;2023-01-25T04:45:53;102142.19;;;-3.96;78.98
70302;BME280;57706;56.326;43.882;2023-01-25T04:48:24;102144.91;;;-4.05;79.95
70302;BME280;57706;56.326;43.882;2023-01-25T04:50:55;102141.78;;;-3.71;78.79
70302;BME280;57706;56.326;43.882;2023-01-25T04:53:22;102134.91;;;-3.69;78.03
70302;BME280;57706;56.326;43.882;2023-01-25T04:55:49;102129.78;;;-3.69;78.07
70302;BME280;57706;56.326;43.882;2023-01-25T04:58:15;102131.19;;;-3.52;77.78
70302;BME280;57706;56.326;43.882;2023-01-25T05:00:42;102138.13;;;-3.57;77.78
70302;BME280;57706;56.326;43.882;2023-01-25T05:03:09;102138.19;;;-3.61;77.94
70302;BME280;57706;56.326;43.882;2023-01-25T05:05:36;102136.44;;;-3.58;77.86
70302;BME280;57706;56.326;43.882;2023-01-25T05:08:06;102137.63;;;-3.78;78.32
70302;BME280;57706;56.326;43.882;2023-01-25T05:10:33;102132.28;;;-3.64;77.74
70302;BME280;57706;56.326;43.882;2023-01-25T05:13:22;102129.03;;;-3.76;78.45
70302;BME280;57706;56.326;43.882;2023-01-25T05:15:55;102141.94;;;-3.80;78.47
70302;BME280;57706;56.326;43.882;2023-01-25T05:18:22;102150.47;;;-3.78;78.67
70302;BME280;57706;56.326;43.882;2023-01-25T05:20:53;102147.25;;;-3.90;78.72
70302;BME280;57706;56.326;43.882;2023-01-25T05:23:21;102137.19;;;-3.53;77.06
70302;BME280;57706;56.326;43.882;2023-01-25T05:25:48;102152.59;;;-3.50;76.89
70302;BME280;57706;56.326;43.882;2023-01-25T05:28:33;102144.19;;;-3.62;77.87
70302;BME280;57706;56.326;43.882;2023-01-25T05:31:24;102146.31;;;-3.37;76.56
70302;BME280;57706;56.326;43.882;2023-01-25T05:33:50;102158.69;;;-3.57;77.15
70302;BME280;57706;56.326;43.882;2023-01-25T05:36:18;102159.03;;;-3.76;77.99
70302;BME280;57706;56.326;43.882;2023-01-25T05:38:45;102161.38;;;-3.64;77.51
70302;BME280;57706;56.326;43.882;2023-01-25T05:41:12;102157.03;;;-3.62;77.95
70302;BME280;57706;56.326;43.882;2023-01-25T05:43:38;102147.97;;;-3.33;76.68
70302;BME280;57706;56.326;43.882;2023-01-25T05:46:22;102148.84;;;-3.34;76.60
70302;BME280;57706;56.326;43.882;2023-01-25T05:49:06;102155.09;;;-3.47;77.71
70302;BME280;57706;56.326;43.882;2023-01-25T05:51:33;102155.88;;;-3.43;77.42
70302;BME280;57706;56.326;43.882;2023-01-25T05:54:01;102157.84;;;-3.58;77.50
70302;BME280;57706;56.326;43.882;2023-01-25T05:56:27;102156.94;;;-3.54;77.97
70302;BME280;57706;56.326;43.882;2023-01-25T05:58:54;102162.75;;;-3.44;77.55
70302;BME280;57706;56.326;43.882;2023-01-25T06:01:21;102154.59;;;-3.19;76.57
70302;BME280;57706;56.326;43.882;2023-01-25T06:03:52;102158.00;;;-3.20;75.62
70302;BME280;57706;56.326;43.882;2023-01-25T06:06:18;102153.81;;;-3.24;76.32
70302;BME280;57706;56.326;43.882;2023-01-25T06:08:45;102156.50;;;-3.30;76.52
70302;BME280;57706;56.326;43.882;2023-01-25T06:11:13;102161.59;;;-3.27;76.31
70302;BME280;57706;56.326;43.882;2023-01-25T06:13:43;102164.31;;;-3.35;76.07
70302;BME280;57706;56.326;43.882;2023-01-25T06:16:10;102158.06;;;-3.23;76.29
70302;BME280;57706;56.326;43.882;2023-01-25T06:18:42;102180.03;;;-3.52;77.30
70302;BME280;57706;56.326;43.882;2023-01-25T06:21:34;102171.75;;;-3.21;76.37
70302;BME280;57706;56.326;43.882;2023-01-25T06:24:02;102170.94;;;-3.23;76.38
70302;BME280;57706;56.326;43.882;2023-01-25T06:26:28;102175.63;;;-3.44;76.72
70302;BME280;57706;56.326;43.882;2023-01-25T06:28:54;102171.13;;;-3.34;77.17
70302;BME280;57706;56.326;43.882;2023-01-25T06:31:20;102176.84;;;-3.18;76.76
70302;BME280;57706;56.326;43.882;2023-01-25T06:33:50;102181.63;;;-2.99;75.43
70302;BME280;57706;56.326;43.882;2023-01-25T06:36:20;102182.53;;;-3.02;75.66
70302;BME280;57706;56.326;43.882;2023-01-25T06:39:05;102182.34;;;-2.93;76.28
70302;BME280;57706;56.326;43.882;2023-01-25T06:41:31;102181.06;;;-2.71;75.10
70302;BME280;57706;56.326;43.882;2023-01-25T06:43:57;102181.25;;;-2.81;74.59
70302;BME280;57706;56.326;43.882;2023-01-25T06:46:23;102172.13;;;-2.96;74.89
70302;BME280;57706;56.326;43.882;2023-01-25T06:48:48;102173.44;;;-3.20;75.66
70302;BME280;57706;56.326;43.882;2023-01-25T06:51:15;102166.69;;;-2.82;74.40
70302;BME280;57706;56.326;43.882;2023-01-25T06:54:02;102161.44;;;-2.75;74.30
70302;BME280;57706;56.326;43.882;2023-01-25T06:56:47;102157.53;;;-2.95;74.58
70302;BME280;57706;56.326;43.882;2023-01-25T06:59:13;102164.25;;;-2.88;74.47
70302;BME280;57706;56.326;43.882;2023-01-25T07:01:40;102171.22;;;-2.93;74.80
70302;BME280;57706;56.326;43.882;2023-01-25T07:04:08;102174.72;;;-2.97;75.27
70302;BME280;57706;56.326;43.882;2023-01-25T07:06:36;102166.28;;;-3.02;75.17
70302;BME280;57706;56.326;43.882;2023-01-25T07:09:08;102156.28;;;-2.75;74.75
70302;BME280;57706;56.326;43.882;2023-01-25T07:11:35;102154.94;;;-2.53;74.40
70302;BME280;57706;56.326;43.882;2023-01-25T07:14:02;102161.63;;;-2.45;73.68
70302;BME280;57706;56.326;43.882;2023-01-25T07:16:28;102161.38;;;-2.33;73.44
70302;BME280;57706;56.326;43.882;2023-01-25T07:19:19;102161.69;;;-2.09;71.42
70302;BME280;57706;56.326;43.882;2023-01-25T07:21:45;102156.13;;;-2.30;72.03
70302;BME280;57706;56.326;43.882;2023-01-25T07:24:13;102150.84;;;-2.24;71.69
70302;BME280;57706;56.326;43.882;2023-01-25T07:26:58;102156.56;;;-2.49;72.50
70302;BME280;57706;56.326;43.882;2023-01-25T07:29:24;102143.13;;;-2.63;72.95
70302;BME280;57706;56.326;43.882;2023-01-25T07:32:11;102138.19;;;-2.72;73.31
70302;BME280;57706;56.326;43.882;2023-01-25T07:34:37;102144.66;;;-2.53;73.10
70302;BME280;57706;56.326;43.882;2023-01-25T07:37:03;102146.81;;;-2.34;72.36
70302;BME280;57706;56.326;43.882;2023-01-25T07:39:29;102140.63;;;-2.27;72.33
70302;BME280;57706;56.326;43.882;2023-01-25T07:41:55;102138.97;;;-2.29;72.00
70302;BME280;57706;56.326;43.882;2023-01-25T07:44:27;102138.22;;;-2.35;72.06
70302;BME280;57706;56.326;43.882;2023-01-25T07:47:05;102137.66;;;-2.47;72.32
70302;BME280;57706;56.326;43.882;2023-01-25T07:49:31;102138.22;;;-2.35;72.76
70302;BME280;57706;56.326;43.882;2023-01-25T07:51:57;102151.50;;;-2.52;72.75
70302;BME280;57706;56.326;43.882;2023-01-25T07:54:23;102156.28;;;-2.36;71.86
70302;BME280;57706;56.326;43.882;2023-01-25T07:56:48;102148.09;;;-2.16;71.61
70302;BME280;57706;56.326;43.882;2023-01-25T07:59:14;102154.41;;;-2.28;71.47
70302;BME280;57706;56.326;43.882;2023-01-25T08:01:40;102143.28;;;-1.94;71.18
70302;BME280;57706;56.326;43.882;2023-01-25T08:04:07;102132.78;;;-1.87;70.81
70302;BME280;57706;56.326;43.882;2023-01-25T08:06:35;102143.03;;;-1.84;70.20
70302;BME280;57706;56.326;43.882;2023-01-25T08:09:21;102147.09;;;-2.10;70.89
70302;BME280;57706;56.326;43.882;2023-01-25T08:12:06;102136.50;;;-1.98;71.63
70302;BME280;57706;56.326;43.882;2023-01-25T08:14:32;102128.09;;;-1.71;69.69
70302;BME280;57706;56.326;43.882;2023-01-25T08:16:58;102124.84;;;-1.45;69.36
70302;BME280;57706;56.326;43.882;2023-01-25T08:19:23;102119.09;;;-1.56;68.88
70302;BME280;57706;56.326;43.882;2023-01-25T08:21:51;102126.59;;;-1.47;68.98
70302;BME280;57706;56.326;43.882;2023-01-25T08:24:17;102116.38;;;-1.18;67.70
70302;BME280;57706;56.326;43.882;2023-01-25T08:26:43;102122.19;;;-0.81;66.55
70302;BME280;57706;56.326;43.882;2023-01-25T08:29:10;102121.75;;;-0.96;66.92
70302;BME280;57706;56.326;43.882;2023-01-25T08:31:39;102107.41;;;-0.76;66.16
70302;BME280;57706;56.326;43.882;2023-01-25T08:34:06;102115.75;;;-0.97;66.14
70302;BME280;57706;56.326;43.882;2023-01-25T08:36:32;102106.97;;;-0.91;66.21
70302;BME280;57706;56.326;43.882;2023-01-25T08:39:04;102108.69;;;-1.20;67.15
70302;BME280;57706;56.326;43.882;2023-01-25T08:41:32;102105.00;;;-1.13;66.76
70302;BME280;57706;56.326;43.882;2023-01-25T08:43:58;102103.16;;;-1.07;66.98
70302;BME280;57706;56.326;43.882;2023-01-25T08:46:27;102109.13;;;-1.35;67.94
70302;BME280;57706;56.326;43.882;2023-01-25T08:48:56;102098.66;;;-1.31;67.92
70302;BME280;57706;56.326;43.882;2023-01-25T08:51:23;102095.94;;;-0.96;66.45
70302;BME280;57706;56.326;43.882;2023-01-25T08:53:49;102094.63;;;-1.09;66.78
70302;BME280;57706;56.326;43.882;2023-01-25T08:56:16;102087.66;;;-1.07;66.99
70302;BME280;57706;56.326;43.882;2023-01-25T08:58:46;102090.16;;;-0.76;65.88
70302;BME280;57706;56.326;43.882;2023-01-25T09:01:14;102090.03;;;-0.71;66.31
70302;BME280;57706;56.326;43.882;2023-01-25T09:03:42;102094.84;;;-0.59;65.96
70302;BME280;57706;56.326;43.882;2023-01-25T09:06:09;102093.91;;;-0.56;65.32
70302;BME280;57706;56.326;43.882;2023-01-25T09:08:35;102090.84;;;-0.40;65.17
70302;BME280;57706;56.326;43.882;2023-01-25T09:11:09;102089.97;;;-0.41;64.95
70302;BME280;57706;56.326;43.882;2023-01-25T09:13:36;102084.97;;;-0.74;65.09
70302;BME280;57706;56.326;43.882;2023-01-25T09:16:04;102080.28;;;-0.61;65.03
70302;BME280;57706;56.326;43.882;2023-01-25T09:18:31;102076.50;;;-0.79;65.87
70302;BME280;57706;56.326;43.882;2023-01-25T09:20:57;102075.09;;;-0.90;66.50
70302;BME280;57706;56.326;43.882;2023-01-25T09:23:24;102069.88;;;-0.87;66.23
70302;BME280;57706;56.326;43.882;2023-01-25T09:25:59;102080.84;;;-0.80;66.39
70302;BME280;57706;56.326;43.882;2023-01-25T09:28:27;102067.59;;;-0.69;66.07
70302;BME280;57706;56.326;43.882;2023-01-25T09:30:55;102064.56;;;-0.82;66.06
70302;BME280;57706;56.326;43.882;2023-01-25T09:33:34;102057.81;;;-0.88;66.31
70302;BME280;57706;56.326;43.882;2023-01-25T09:36:01;102062.72;;;-0.78;66.46
70302;BME280;57706;56.326;43.882;2023-01-25T09:38:27;102048.19;;;-0.81;66.58
70302;BME280;57706;56.326;43.882;2023-01-25T09:44:11;102038.00;;;-0.86;66.48
70302;BME280;57706;56.326;43.882;2023-01-25T09:47:08;102037.38;;;-0.65;65.96
70302;BME280;57706;56.326;43.882;2023-01-25T09:55:17;102030.09;;;-0.54;65.17
70302;BME280;57706;56.326;43.882;2023-01-25T09:57:45;102034.81;;;-0.67;66.07
70302;BME280;57706;56.326;43.882;2023-01-25T10:00:20;102029.78;;;-0.70;66.29
70302;BME280;57706;56.326;43.882;2023-01-25T10:02:59;102029.16;;;-0.51;65.62
70302;BME280;57706;56.326;43.882;2023-01-25T10:05:27;102033.22;;;-0.71;66.63
70302;BME280;57706;56.326;43.882;2023-01-25T10:10:43;102033.91;;;-0.93;67.01
70302;BME280;57706;56.326;43.882;2023-01-25T10:13:18;102036.47;;;-1.21;67.61
70302;BME280;57706;56.326;43.882;2023-01-25T10:15:52;102024.41;;;-1.21;68.00
70302;BME280;57706;56.326;43.882;2023-01-25T10:18:38;102033.91;;;-0.93;67.71
70302;BME280;57706;56.326;43.882;2023-01-25T10:21:22;102026.25;;;-0.96;67.65
70302;BME280;57706;56.326;43.882;2023-01-25T10:26:40;102010.41;;;-1.14;67.94
70302;BME280;57706;56.326;43.882;2023-01-25T10:29:19;102010.63;;;-1.20;68.89
70302;BME280;57706;56.326;43.882;2023-01-25T10:31:48;102007.97;;;-1.18;68.30
70302;BME280;57706;56.326;43.882;2023-01-25T10:34:24;102007.66;;;-1.36;69.14
70302;BME280;57706;56.326;43.882;2023-01-25T10:36:55;102002.44;;;-1.34;69.55
70302;BME280;57706;56.326;43.882;2023-01-25T10:39:21;102002.06;;;-1.22;69.20
70302;BME280;57706;56.326;43.882;2023-01-25T10:41:58;101994.63;;;-1.03;68.40
70302;BME280;57706;56.326;43.882;2023-01-25T10:44:26;101985.78;;;-1.24;68.85
70302;BME280;57706;56.326;43.882;2023-01-25T10:52:15;101982.66;;;-1.05;68.60
70302;BME280;57706;56.326;43.882;2023-01-25T10:54:42;101979.47;;;-1.14;68.68
70302;BME280;57706;56.326;43.882;2023-01-25T10:57:13;101978.84;;;-1.22;69.10
70302;BME280;57706;56.326;43.882;2023-01-25T11:00:04;101969.53;;;-1.26;69.39
70302;BME280;57706;56.326;43.882;2023-01-25T11:07:48;101956.34;;;-1.17;69.42
70302;BME280;57706;56.326;43.882;2023-01-25T11:10:33;101961.25;;;-1.09;69.62
70302;BME280;57706;56.326;43.882;2023-01-25T11:15:46;101960.88;;;-1.25;70.29
70302;BME280;57706;56.326;43.882;2023-01-25T11:18:25;101952.91;;;-1.17;69.63
70302;BME280;57706;56.326;43.882;2023-01-25T11:21:15;101960.09;;;-1.27;70.11
70302;BME280;57706;56.326;43.882;2023-01-25T11:26:37;101955.94;;;-1.04;69.92
70302;BME280;57706;56.326;43.882;2023-01-25T11:29:11;101946.91;;;-1.18;69.95
70302;BME280;57706;56.326;43.882;2023-01-25T11:31:38;101949.69;;;-0.97;69.54
70302;BME280;57706;56.326;43.882;2023-01-25T11:34:16;101948.88;;;-1.26;70.21
70302;BME280;57706;56.326;43.882;2023-01-25T11:45:41;101924.94;;;-1.31;71.16
70302;BME280;57706;56.326;43.882;2023-01-25T11:48:59;101922.03;;;-0.93;69.53
70302;BME280;57706;56.326;43.882;2023-01-25T11:52:02;101919.50;;;-1.22;70.64
70302;BME280;57706;56.326;43.882;2023-01-25T11:54:44;101917.91;;;-1.26;70.76
70302;BME280;57706;56.326;43.882;2023-01-25T12:06:14;101917.63;;;-1.17;70.94
70302;BME280;57706;56.326;43.882;2023-01-25T12:11:35;101906.56;;;-1.49;71.73
70302;BME280;57706;56.326;43.882;2023-01-25T12:14:11;101909.56;;;-1.34;71.38
70302;BME280;57706;56.326;43.882;2023-01-25T12:33:16;101881.34;;;-1.68;72.87
70302;BME280;57706;56.326;43.882;2023-01-25T12:35:51;101875.72;;;-1.52;72.42
70302;BME280;57706;56.326;43.882;2023-01-25T12:38:25;101877.59;;;-1.57;73.13
70302;BME280;57706;56.326;43.882;2023-01-25T12:40:58;101870.13;;;-1.67;72.82
70302;BME280;57706;56.326;43.882;2023-01-25T12:43:49;101864.53;;;-1.81;73.75
70302;BME280;57706;56.326;43.882;2023-01-25T12:49:41;101849.47;;;-1.36;72.69
70302;BME280;57706;56.326;43.882;2023-01-25T12:52:26;101844.41;;;-1.68;72.94
70302;BME280;57706;56.326;43.882;2023-01-25T12:54:56;101843.03;;;-1.80;73.67
70302;BME280;57706;56.326;43.882;2023-01-25T13:06:12;101832.66;;;-1.50;72.66
70302;BME280;57706;56.326;43.882;2023-01-25T13:11:41;101817.81;;;-1.70;73.24
70302;BME280;57706;56.326;43.882;2023-01-25T13:16:55;101814.78;;;-1.83;73.83
70302;BME280;57706;56.326;43.882;2023-01-25T13:22:00;101814.88;;;-1.86;74.34
70302;BME280;57706;56.326;43.882;2023-01-25T13:24:30;101815.44;;;-1.76;73.88
70302;BME280;57706;56.326;43.882;2023-01-25T13:27:22;101812.81;;;-1.75;73.62
70302;BME280;57706;56.326;43.882;2023-01-25T13:30:28;101810.53;;;-2.14;75.21
70302;BME280;57706;56.326;43.882;2023-01-25T13:32:57;101808.75;;;-2.12;75.18
70302;BME280;57706;56.326;43.882;2023-01-25T13:38:21;101804.88;;;-2.26;75.63
70302;BME280;57706;56.326;43.882;2023-01-25T13:41:07;101802.34;;;-1.99;75.06
70302;BME280;57706;56.326;43.882;2023-01-25T13:43:41;101810.19;;;-2.02;74.77
70302;BME280;57706;56.326;43.882;2023-01-25T13:46:10;101806.19;;;-2.12;75.35
70302;BME280;57706;56.326;43.882;2023-01-25T13:48:44;101799.91;;;-2.03;75.10
70302;BME280;57706;56.326;43.882;2023-01-25T13:51:13;101796.88;;;-2.16;75.19
70302;BME280;57706;56.326;43.882;2023-01-25T13:53:41;101794.13;;;-1.82;74.11
70302;BME280;57706;56.326;43.882;2023-01-25T13:56:30;101799.31;;;-1.83;74.08
70302;BME280;57706;56.326;43.882;2023-01-25T13:58:56;101796.69;;;-2.10;75.22
70302;BME280;57706;56.326;43.882;2023-01-25T14:01:22;101805.94;;;-2.33;76.09
70302;BME280;57706;56.326;43.882;2023-01-25T14:03:51;101807.00;;;-2.42;76.79
70302;BME280;57706;56.326;43.882;2023-01-25T14:06:21;101805.81;;;-2.30;76.31
70302;BME280;57706;56.326;43.882;2023-01-25T14:08:48;101820.44;;;-2.30;76.31
70302;BME280;57706;56.326;43.882;2023-01-25T14:11:19;101810.56;;;-2.46;77.14
70302;BME280;57706;56.326;43.882;2023-01-25T14:14:00;101817.41;;;-2.45;77.25
70302;BME280;57706;56.326;43.882;2023-01-25T14:16:28;101819.94;;;-2.43;76.85
70302;BME280;57706;56.326;43.882;2023-01-25T14:19:08;101819.94;;;-2.43;76.93
70302;BME280;57706;56.326;43.882;2023-01-25T14:21:43;101801.19;;;-2.49;77.09
70302;BME280;57706;56.326;43.882;2023-01-25T14:24:09;101806.09;;;-2.39;76.53
70302;BME280;57706;56.326;43.882;2023-01-25T14:26:37;101792.81;;;-2.55;76.72
70302;BME280;57706;56.326;43.882;2023-01-25T14:29:16;101790.97;;;-2.20;75.17
70302;BME280;57706;56.326;43.882;2023-01-25T14:32:02;101803.75;;;-2.47;76.40
70302;BME280;57706;56.326;43.882;2023-01-25T14:34:27;101800.25;;;-2.44;76.55
70302;BME280;57706;56.326;43.882;2023-01-25T14:37:16;101803.97;;;-2.25;75.36
70302;BME280;57706;56.326;43.882;2023-01-25T14:39:43;101809.75;;;-2.80;77.17
70302;BME280;57706;56.326;43.882;2023-01-25T14:42:10;101797.59;;;-2.73;77.05
70302;BME280;57706;56.326;43.882;2023-01-25T14:44:54;101796.63;;;-2.70;76.59